THY323 UTAA-LTFM
Flight info
| Callsign | THY323 |
|---|---|
| Flight time | N/A |
| Altitude | 36000 |
| Route | MAM29D MAMED B450 BIBIM A909 RODAR N644 ADEKI/N0459F380 N644 BADIR DCT NOLGA UN61 TBN UW71 CRM UM688 EKSUK UL852 EVPIM UT304 LUUPU UT310 NUGBA |
| Aircraft | B38M/M-SDE1FGHILORVWXY/HB1 |
Departure
| Time | 2026-04-29 14:21 |
|---|---|
| Airport | Ashgabat International Airport (UTAA) |
Arrival
| Time | N/A |
|---|---|
| Airport | İstanbul Airport (LTFM) |
| Time | Latitude | Longitude | Altitude | Speed | Heading |
|---|---|---|---|---|---|
| 2026-04-29 13:24 | 37.98273 | 58.36820 | 680 ft | 0 kts | 30° |
| 2026-04-29 14:05 | 37.98266 | 58.36814 | 680 ft | 2 kts | 30° |
| 2026-04-29 14:05 | 37.98258 | 58.36809 | 679 ft | 0 kts | 30° |
| 2026-04-29 14:06 | 37.98255 | 58.36806 | 679 ft | 3 kts | 30° |
| 2026-04-29 14:06 | 37.98245 | 58.36799 | 680 ft | 0 kts | 30° |
| 2026-04-29 14:07 | 37.98231 | 58.36789 | 678 ft | 2 kts | 30° |
| 2026-04-29 14:07 | 37.98224 | 58.36783 | 678 ft | 0 kts | 30° |
| 2026-04-29 14:07 | 37.98214 | 58.36776 | 675 ft | 2 kts | 30° |
| 2026-04-29 14:08 | 37.98212 | 58.36775 | 675 ft | 0 kts | 30° |
| 2026-04-29 14:08 | 37.98206 | 58.36770 | 679 ft | 2 kts | 30° |
| 2026-04-29 14:08 | 37.98192 | 58.36762 | 679 ft | 2 kts | 7° |
| 2026-04-29 14:09 | 37.98176 | 58.36763 | 679 ft | 2 kts | 342° |
| 2026-04-29 14:09 | 37.98162 | 58.36772 | 680 ft | 1 kts | 317° |
| 2026-04-29 14:09 | 37.98162 | 58.36773 | 680 ft | 0 kts | 317° |
| 2026-04-29 14:11 | 37.98167 | 58.36766 | 678 ft | 4 kts | 315° |
| 2026-04-29 14:11 | 37.98204 | 58.36690 | 680 ft | 14 kts | 298° |
| 2026-04-29 14:11 | 37.98244 | 58.36599 | 679 ft | 11 kts | 300° |
| 2026-04-29 14:12 | 37.98281 | 58.36518 | 677 ft | 10 kts | 301° |
| 2026-04-29 14:12 | 37.98313 | 58.36448 | 678 ft | 8 kts | 310° |
| 2026-04-29 14:12 | 37.98360 | 58.36423 | 680 ft | 7 kts | 359° |
| 2026-04-29 14:12 | 37.98399 | 58.36441 | 680 ft | 5 kts | 28° |
| 2026-04-29 14:13 | 37.98428 | 58.36461 | 680 ft | 4 kts | 30° |
| 2026-04-29 14:13 | 37.98458 | 58.36483 | 680 ft | 7 kts | 30° |
| 2026-04-29 14:13 | 37.98514 | 58.36523 | 680 ft | 12 kts | 29° |
| 2026-04-29 14:13 | 37.98603 | 58.36585 | 680 ft | 17 kts | 28° |
| 2026-04-29 14:14 | 37.98656 | 58.36636 | 677 ft | 0 kts | 64° |
| 2026-04-29 14:14 | 37.98663 | 58.36656 | 679 ft | 5 kts | 70° |
| 2026-04-29 14:14 | 37.98666 | 58.36665 | 680 ft | 0 kts | 73° |
| 2026-04-29 14:16 | 37.98666 | 58.36666 | 680 ft | 0 kts | 73° |
| 2026-04-29 14:16 | 37.98665 | 58.36672 | 680 ft | 4 kts | 94° |
| 2026-04-29 14:16 | 37.98627 | 58.36743 | 680 ft | 17 kts | 140° |
| 2026-04-29 14:16 | 37.98539 | 58.36897 | 680 ft | 24 kts | 119° |
| 2026-04-29 14:17 | 37.98453 | 58.37088 | 680 ft | 25 kts | 119° |
| 2026-04-29 14:17 | 37.98380 | 58.37259 | 680 ft | 20 kts | 118° |
| 2026-04-29 14:17 | 37.98377 | 58.37379 | 680 ft | 12 kts | 74° |
| 2026-04-29 14:17 | 37.98399 | 58.37476 | 678 ft | 12 kts | 77° |
| 2026-04-29 14:18 | 37.98365 | 58.37592 | 680 ft | 18 kts | 120° |
| 2026-04-29 14:18 | 37.98294 | 58.37752 | 680 ft | 24 kts | 119° |
| 2026-04-29 14:18 | 37.98238 | 58.37930 | 680 ft | 15 kts | 84° |
| 2026-04-29 14:18 | 37.98260 | 58.37991 | 679 ft | 6 kts | 55° |
| 2026-04-29 14:19 | 37.98319 | 58.38046 | 679 ft | 13 kts | 31° |
| 2026-04-29 14:19 | 37.98377 | 58.38022 | 679 ft | 10 kts | 294° |
| 2026-04-29 14:19 | 37.98398 | 58.37968 | 677 ft | 0 kts | 300° |
| 2026-04-29 14:19 | 37.98399 | 58.37964 | 678 ft | 1 kts | 300° |
| 2026-04-29 14:20 | 37.98422 | 58.37914 | 679 ft | 26 kts | 300° |
| 2026-04-29 14:20 | 37.98628 | 58.37450 | 679 ft | 92 kts | 299° |
| 2026-04-29 14:20 | 37.99037 | 58.36527 | 679 ft | 146 kts | 299° |
| 2026-04-29 14:20 | 37.99604 | 58.35250 | 759 ft | 181 kts | 299° |
| 2026-04-29 14:21 | 38.00212 | 58.33851 | 1372 ft | 184 kts | 298° |
| 2026-04-29 14:21 | 38.00811 | 58.32396 | 2056 ft | 183 kts | 298° |
| 2026-04-29 14:21 | 38.01453 | 58.30951 | 2541 ft | 199 kts | 301° |
| 2026-04-29 14:21 | 38.02175 | 58.29350 | 2887 ft | 221 kts | 301° |
| 2026-04-29 14:22 | 38.03020 | 58.27574 | 3153 ft | 249 kts | 311° |
| 2026-04-29 14:22 | 38.04339 | 58.26210 | 3973 ft | 249 kts | 330° |
| 2026-04-29 14:22 | 38.05931 | 58.25155 | 4463 ft | 267 kts | 332° |
| 2026-04-29 14:22 | 38.07440 | 58.23696 | 5128 ft | 276 kts | 319° |
| 2026-04-29 14:23 | 38.08906 | 58.22087 | 5859 ft | 283 kts | 319° |
| 2026-04-29 14:23 | 38.09908 | 58.21012 | 6371 ft | 285 kts | 319° |
| 2026-04-29 14:23 | 38.11438 | 58.19386 | 7112 ft | 289 kts | 319° |
| 2026-04-29 14:23 | 38.12986 | 58.17755 | 7874 ft | 291 kts | 319° |
| 2026-04-29 14:24 | 38.14561 | 58.16101 | 8618 ft | 295 kts | 319° |
| 2026-04-29 14:24 | 38.16151 | 58.14436 | 9382 ft | 298 kts | 319° |
| 2026-04-29 14:24 | 38.17762 | 58.12751 | 10096 ft | 302 kts | 318° |
| 2026-04-29 14:24 | 38.19416 | 58.11022 | 10538 ft | 317 kts | 318° |
| 2026-04-29 14:25 | 38.21177 | 58.09179 | 10814 ft | 337 kts | 319° |
| 2026-04-29 14:25 | 38.23032 | 58.07239 | 11166 ft | 352 kts | 319° |
| 2026-04-29 14:25 | 38.24947 | 58.05233 | 11757 ft | 358 kts | 318° |
| 2026-04-29 14:25 | 38.26868 | 58.03219 | 12539 ft | 359 kts | 318° |
| 2026-04-29 14:26 | 38.28803 | 58.01189 | 13287 ft | 362 kts | 318° |
| 2026-04-29 14:26 | 38.30753 | 57.99143 | 14027 ft | 364 kts | 317° |
| 2026-04-29 14:26 | 38.32717 | 57.97080 | 14681 ft | 368 kts | 317° |
| 2026-04-29 14:26 | 38.34703 | 57.94992 | 15363 ft | 372 kts | 317° |
| 2026-04-29 14:27 | 38.36708 | 57.92883 | 16021 ft | 376 kts | 317° |
| 2026-04-29 14:27 | 38.38735 | 57.90749 | 16668 ft | 380 kts | 317° |
| 2026-04-29 14:27 | 38.40784 | 57.88590 | 17301 ft | 384 kts | 317° |
| 2026-04-29 14:28 | 38.44943 | 57.84204 | 18510 ft | 392 kts | 317° |
| 2026-04-29 14:28 | 38.47025 | 57.82005 | 19052 ft | 395 kts | 317° |
| 2026-04-29 14:28 | 38.49148 | 57.79760 | 19605 ft | 398 kts | 317° |
| 2026-04-29 14:28 | 38.51289 | 57.77496 | 20145 ft | 401 kts | 317° |
| 2026-04-29 14:29 | 38.53475 | 57.75183 | 20678 ft | 405 kts | 317° |
| 2026-04-29 14:29 | 38.55648 | 57.72881 | 21210 ft | 408 kts | 317° |
| 2026-04-29 14:29 | 38.57811 | 57.70588 | 21730 ft | 411 kts | 317° |
| 2026-04-29 14:29 | 38.60020 | 57.68245 | 22248 ft | 414 kts | 317° |
| 2026-04-29 14:30 | 38.62012 | 57.65619 | 22730 ft | 411 kts | 301° |
| 2026-04-29 14:30 | 38.63545 | 57.62536 | 23210 ft | 413 kts | 299° |
| 2026-04-29 14:30 | 38.65089 | 57.59410 | 23658 ft | 417 kts | 299° |
| 2026-04-29 14:30 | 38.66624 | 57.56258 | 24079 ft | 419 kts | 298° |
| 2026-04-29 14:31 | 38.68162 | 57.53071 | 24489 ft | 422 kts | 298° |
| 2026-04-29 14:31 | 38.69704 | 57.49862 | 24890 ft | 425 kts | 298° |
| 2026-04-29 14:31 | 38.71253 | 57.46633 | 25281 ft | 428 kts | 298° |
| 2026-04-29 14:31 | 38.72814 | 57.43373 | 25667 ft | 431 kts | 298° |
| 2026-04-29 14:32 | 38.74386 | 57.40087 | 26043 ft | 434 kts | 298° |
| 2026-04-29 14:32 | 38.75963 | 57.36786 | 26424 ft | 436 kts | 298° |
| 2026-04-29 14:32 | 38.77554 | 57.33455 | 26797 ft | 439 kts | 298° |
| 2026-04-29 14:32 | 38.79149 | 57.30109 | 27158 ft | 442 kts | 298° |
| 2026-04-29 14:33 | 38.80757 | 57.26734 | 27526 ft | 445 kts | 298° |
| 2026-04-29 14:33 | 38.82373 | 57.23338 | 27865 ft | 448 kts | 298° |
| 2026-04-29 14:33 | 38.83998 | 57.19920 | 28214 ft | 450 kts | 298° |
| 2026-04-29 14:33 | 38.85632 | 57.16477 | 28560 ft | 453 kts | 298° |
| 2026-04-29 14:34 | 38.87276 | 57.13013 | 28886 ft | 456 kts | 298° |
| 2026-04-29 14:34 | 38.88927 | 57.09528 | 29226 ft | 458 kts | 298° |
| 2026-04-29 14:34 | 38.90586 | 57.06022 | 29555 ft | 461 kts | 298° |
| 2026-04-29 14:34 | 38.92257 | 57.02489 | 29868 ft | 464 kts | 298° |
| 2026-04-29 14:35 | 38.93936 | 56.98933 | 30163 ft | 466 kts | 298° |
| 2026-04-29 14:35 | 38.95595 | 56.95415 | 30450 ft | 468 kts | 298° |
| 2026-04-29 14:35 | 38.97285 | 56.91830 | 30753 ft | 470 kts | 298° |
| 2026-04-29 14:35 | 38.98977 | 56.88235 | 31091 ft | 470 kts | 298° |
| 2026-04-29 14:36 | 39.00663 | 56.84648 | 31510 ft | 468 kts | 298° |
| 2026-04-29 14:36 | 39.02343 | 56.81071 | 31940 ft | 467 kts | 298° |
| 2026-04-29 14:36 | 39.04017 | 56.77503 | 32375 ft | 464 kts | 297° |
| 2026-04-29 14:36 | 39.05681 | 56.73952 | 32806 ft | 463 kts | 297° |
| 2026-04-29 14:37 | 39.07338 | 56.70412 | 33227 ft | 461 kts | 297° |
| 2026-04-29 14:37 | 39.08986 | 56.66885 | 33652 ft | 459 kts | 297° |
| 2026-04-29 14:37 | 39.10626 | 56.63373 | 34060 ft | 457 kts | 297° |
| 2026-04-29 14:37 | 39.12263 | 56.59864 | 34408 ft | 456 kts | 297° |
| 2026-04-29 14:38 | 39.13891 | 56.56370 | 34753 ft | 454 kts | 297° |
| 2026-04-29 14:38 | 39.15510 | 56.52894 | 35095 ft | 452 kts | 297° |
| 2026-04-29 14:38 | 39.17121 | 56.49428 | 35417 ft | 450 kts | 297° |
| 2026-04-29 14:38 | 39.18728 | 56.45969 | 35724 ft | 449 kts | 296° |
| 2026-04-29 14:39 | 39.20329 | 56.42518 | 35962 ft | 449 kts | 296° |
| 2026-04-29 14:39 | 39.23518 | 56.35632 | 35995 ft | 445 kts | 296° |
| 2026-04-29 14:40 | 39.26694 | 56.28760 | 35991 ft | 446 kts | 296° |
| 2026-04-29 14:40 | 39.29872 | 56.21870 | 35992 ft | 447 kts | 296° |
| 2026-04-29 14:41 | 39.33050 | 56.14963 | 35993 ft | 447 kts | 296° |
| 2026-04-29 14:41 | 39.36225 | 56.08047 | 35993 ft | 448 kts | 296° |
| 2026-04-29 14:42 | 39.39401 | 56.01115 | 36001 ft | 448 kts | 296° |
| 2026-04-29 14:42 | 39.42574 | 55.94176 | 35997 ft | 448 kts | 296° |
| 2026-04-29 14:43 | 39.45746 | 55.87227 | 35998 ft | 449 kts | 296° |
| 2026-04-29 14:43 | 39.48925 | 55.80265 | 35999 ft | 450 kts | 296° |
| 2026-04-29 14:44 | 39.52132 | 55.73370 | 36001 ft | 450 kts | 296° |
| 2026-04-29 14:44 | 39.55376 | 55.66374 | 35998 ft | 450 kts | 296° |
| 2026-04-29 14:45 | 39.58580 | 55.59449 | 35997 ft | 451 kts | 296° |
| 2026-04-29 14:45 | 39.61801 | 55.52472 | 36002 ft | 451 kts | 296° |
| 2026-04-29 14:46 | 39.65019 | 55.45486 | 35994 ft | 451 kts | 296° |
| 2026-04-29 14:46 | 39.68236 | 55.38488 | 36000 ft | 452 kts | 296° |
| 2026-04-29 14:46 | 39.69612 | 55.34856 | 35982 ft | 443 kts | 283° |
| 2026-04-29 14:47 | 39.70455 | 55.31032 | 36003 ft | 442 kts | 282° |
| 2026-04-29 14:47 | 39.72187 | 55.23363 | 36002 ft | 442 kts | 281° |
| 2026-04-29 14:48 | 39.73863 | 55.15685 | 36002 ft | 442 kts | 281° |
| 2026-04-29 14:48 | 39.75526 | 55.07996 | 36003 ft | 442 kts | 281° |
| 2026-04-29 14:49 | 39.77182 | 55.00313 | 36007 ft | 442 kts | 281° |
| 2026-04-29 14:49 | 39.78834 | 54.92621 | 36007 ft | 442 kts | 281° |
| 2026-04-29 14:50 | 39.80481 | 54.84924 | 36006 ft | 442 kts | 281° |
| 2026-04-29 14:50 | 39.82122 | 54.77232 | 36007 ft | 442 kts | 281° |
| 2026-04-29 14:51 | 39.83769 | 54.69531 | 36014 ft | 441 kts | 281° |
| 2026-04-29 14:51 | 39.85410 | 54.61836 | 36015 ft | 441 kts | 281° |
| 2026-04-29 14:52 | 39.87045 | 54.54136 | 36019 ft | 442 kts | 281° |
| 2026-04-29 14:52 | 39.88676 | 54.46429 | 36016 ft | 442 kts | 281° |
| 2026-04-29 14:53 | 39.90291 | 54.38712 | 36021 ft | 442 kts | 280° |
| 2026-04-29 14:53 | 39.91903 | 54.30989 | 36019 ft | 442 kts | 280° |
| 2026-04-29 14:54 | 39.93510 | 54.23262 | 36032 ft | 442 kts | 280° |
| 2026-04-29 14:54 | 39.95111 | 54.15531 | 36015 ft | 442 kts | 280° |
| 2026-04-29 14:55 | 39.96707 | 54.07799 | 36018 ft | 442 kts | 280° |
| 2026-04-29 14:55 | 39.98299 | 54.00059 | 36019 ft | 442 kts | 280° |
| 2026-04-29 14:56 | 39.99873 | 53.92374 | 36024 ft | 442 kts | 280° |
| 2026-04-29 14:56 | 40.01454 | 53.84632 | 36023 ft | 442 kts | 280° |
| 2026-04-29 14:57 | 40.03028 | 53.76890 | 36018 ft | 442 kts | 280° |
| 2026-04-29 14:57 | 40.04598 | 53.69141 | 36023 ft | 442 kts | 280° |
| 2026-04-29 14:58 | 40.06162 | 53.61391 | 36020 ft | 441 kts | 280° |
| 2026-04-29 14:58 | 40.07720 | 53.53645 | 36022 ft | 441 kts | 280° |
| 2026-04-29 14:59 | 40.09273 | 53.45892 | 36018 ft | 441 kts | 280° |
| 2026-04-29 14:59 | 40.10820 | 53.38139 | 36028 ft | 441 kts | 280° |
| 2026-04-29 15:00 | 40.12362 | 53.30382 | 36032 ft | 441 kts | 279° |
| 2026-04-29 15:00 | 40.13898 | 53.22629 | 36048 ft | 441 kts | 279° |
| 2026-04-29 15:01 | 40.15428 | 53.14874 | 36044 ft | 440 kts | 279° |
| 2026-04-29 15:01 | 40.16952 | 53.07122 | 36046 ft | 440 kts | 279° |
| 2026-04-29 15:02 | 40.18469 | 52.99372 | 36048 ft | 440 kts | 279° |
| 2026-04-29 15:02 | 40.19981 | 52.91619 | 36045 ft | 440 kts | 279° |
| 2026-04-29 15:03 | 40.21486 | 52.83874 | 36042 ft | 439 kts | 279° |
| 2026-04-29 15:03 | 40.22987 | 52.76120 | 36039 ft | 439 kts | 279° |
| 2026-04-29 15:04 | 40.24482 | 52.68374 | 36035 ft | 439 kts | 279° |
| 2026-04-29 15:04 | 40.25973 | 52.60624 | 36034 ft | 439 kts | 279° |
| 2026-04-29 15:05 | 40.27447 | 52.52918 | 36037 ft | 439 kts | 279° |
| 2026-04-29 15:05 | 40.28929 | 52.45165 | 36042 ft | 439 kts | 279° |
| 2026-04-29 15:06 | 40.30405 | 52.37412 | 36044 ft | 439 kts | 279° |
| 2026-04-29 15:06 | 40.31877 | 52.29649 | 36044 ft | 439 kts | 279° |
| 2026-04-29 15:07 | 40.33343 | 52.21887 | 36051 ft | 439 kts | 279° |
| 2026-04-29 15:07 | 40.34803 | 52.14128 | 36053 ft | 439 kts | 279° |
| 2026-04-29 15:08 | 40.36257 | 52.06365 | 36054 ft | 438 kts | 279° |
| 2026-04-29 15:08 | 40.37705 | 51.98606 | 36059 ft | 438 kts | 279° |
| 2026-04-29 15:09 | 40.39150 | 51.90834 | 36059 ft | 438 kts | 278° |
| 2026-04-29 15:09 | 40.40586 | 51.83073 | 36060 ft | 438 kts | 278° |
| 2026-04-29 15:10 | 40.42018 | 51.75309 | 36063 ft | 438 kts | 278° |
| 2026-04-29 15:10 | 40.43444 | 51.67544 | 36058 ft | 438 kts | 278° |
| 2026-04-29 15:11 | 40.44864 | 51.59780 | 36055 ft | 437 kts | 278° |
| 2026-04-29 15:11 | 40.46272 | 51.52063 | 36070 ft | 437 kts | 278° |
| 2026-04-29 15:12 | 40.47841 | 51.44336 | 36072 ft | 438 kts | 280° |
| 2026-04-29 15:12 | 40.49162 | 51.37864 | 36071 ft | 438 kts | 280° |
| 2026-04-29 15:13 | 40.50983 | 51.28880 | 36067 ft | 438 kts | 280° |
| 2026-04-29 15:13 | 40.52544 | 51.21150 | 36070 ft | 438 kts | 280° |
| 2026-04-29 15:14 | 40.53847 | 51.14675 | 36076 ft | 437 kts | 280° |
| 2026-04-29 15:14 | 40.55397 | 51.06948 | 36078 ft | 437 kts | 280° |
| 2026-04-29 15:15 | 40.56943 | 50.99207 | 36077 ft | 437 kts | 280° |
| 2026-04-29 15:15 | 40.58484 | 50.91466 | 36079 ft | 438 kts | 280° |
| 2026-04-29 15:16 | 40.60019 | 50.83720 | 36077 ft | 438 kts | 280° |
| 2026-04-29 15:16 | 40.61550 | 50.75970 | 36080 ft | 438 kts | 280° |
| 2026-04-29 15:17 | 40.63076 | 50.68213 | 36084 ft | 438 kts | 280° |
| 2026-04-29 15:17 | 40.64596 | 50.60456 | 36084 ft | 438 kts | 280° |
| 2026-04-29 15:18 | 40.66112 | 50.52694 | 36082 ft | 438 kts | 280° |
| 2026-04-29 15:18 | 40.67624 | 50.44925 | 36089 ft | 437 kts | 279° |
| 2026-04-29 15:19 | 40.69126 | 50.37165 | 36095 ft | 437 kts | 279° |
| 2026-04-29 15:19 | 40.70626 | 50.29392 | 36097 ft | 438 kts | 279° |
| 2026-04-29 15:20 | 40.72111 | 50.21666 | 36095 ft | 438 kts | 279° |
| 2026-04-29 15:20 | 40.73601 | 50.13885 | 36100 ft | 438 kts | 279° |
| 2026-04-29 15:21 | 40.75086 | 50.06094 | 36092 ft | 438 kts | 279° |
| 2026-04-29 15:21 | 40.76566 | 49.98305 | 36101 ft | 438 kts | 279° |
| 2026-04-29 15:22 | 40.78042 | 49.90505 | 36101 ft | 438 kts | 279° |
| 2026-04-29 15:22 | 40.79513 | 49.82697 | 36103 ft | 438 kts | 279° |
| 2026-04-29 15:23 | 40.80979 | 49.74883 | 36104 ft | 439 kts | 279° |
| 2026-04-29 15:23 | 40.82441 | 49.67064 | 36105 ft | 439 kts | 279° |
| 2026-04-29 15:24 | 40.83898 | 49.59240 | 36104 ft | 439 kts | 279° |
| 2026-04-29 15:24 | 40.85351 | 49.51402 | 36107 ft | 439 kts | 279° |
| 2026-04-29 15:25 | 40.86799 | 49.43563 | 36108 ft | 439 kts | 279° |
| 2026-04-29 15:25 | 40.88242 | 49.35720 | 36112 ft | 439 kts | 279° |
| 2026-04-29 15:26 | 40.89580 | 49.27848 | 36111 ft | 439 kts | 278° |
| 2026-04-29 15:26 | 40.90918 | 49.19973 | 36107 ft | 439 kts | 278° |
| 2026-04-29 15:27 | 40.92254 | 49.12083 | 36118 ft | 440 kts | 278° |
| 2026-04-29 15:27 | 40.93575 | 49.04252 | 36113 ft | 440 kts | 278° |
| 2026-04-29 15:28 | 40.94900 | 48.96359 | 36116 ft | 440 kts | 278° |
| 2026-04-29 15:28 | 40.96221 | 48.88461 | 36105 ft | 440 kts | 278° |
| 2026-04-29 15:29 | 40.97537 | 48.80551 | 36115 ft | 440 kts | 278° |
| 2026-04-29 15:30 | 41.00151 | 48.64735 | 36107 ft | 440 kts | 278° |
| 2026-04-29 15:30 | 41.01449 | 48.56827 | 36101 ft | 439 kts | 278° |
| 2026-04-29 15:31 | 41.02743 | 48.48913 | 36084 ft | 439 kts | 278° |
| 2026-04-29 15:31 | 41.04028 | 48.41011 | 36093 ft | 439 kts | 278° |
| 2026-04-29 15:32 | 41.05310 | 48.33096 | 36074 ft | 439 kts | 278° |
| 2026-04-29 15:32 | 41.06585 | 48.25187 | 36057 ft | 439 kts | 278° |
| 2026-04-29 15:33 | 41.07855 | 48.17266 | 36073 ft | 440 kts | 278° |
| 2026-04-29 15:33 | 41.09121 | 48.09345 | 36062 ft | 439 kts | 278° |
| 2026-04-29 15:34 | 41.10381 | 48.01430 | 36058 ft | 439 kts | 278° |
| 2026-04-29 15:34 | 41.11631 | 47.93511 | 36064 ft | 439 kts | 278° |
| 2026-04-29 15:35 | 41.12877 | 47.85588 | 36061 ft | 439 kts | 278° |
| 2026-04-29 15:35 | 41.14118 | 47.77671 | 36065 ft | 439 kts | 278° |
| 2026-04-29 15:36 | 41.15353 | 47.69745 | 36066 ft | 438 kts | 278° |
| 2026-04-29 15:36 | 41.16582 | 47.61825 | 36064 ft | 438 kts | 278° |
| 2026-04-29 15:37 | 41.17805 | 47.53904 | 36068 ft | 438 kts | 278° |
| 2026-04-29 15:37 | 41.19014 | 47.46033 | 36066 ft | 438 kts | 278° |
| 2026-04-29 15:38 | 41.20233 | 47.38062 | 36074 ft | 438 kts | 278° |
| 2026-04-29 15:38 | 41.21438 | 47.30142 | 36066 ft | 438 kts | 278° |
| 2026-04-29 15:39 | 41.22631 | 47.22267 | 36092 ft | 438 kts | 278° |
| 2026-04-29 15:39 | 41.23832 | 47.14297 | 36081 ft | 437 kts | 278° |
| 2026-04-29 15:40 | 41.25011 | 47.06432 | 36099 ft | 437 kts | 278° |
| 2026-04-29 15:40 | 41.26193 | 46.98514 | 36108 ft | 437 kts | 278° |
| 2026-04-29 15:41 | 41.27368 | 46.90595 | 36109 ft | 436 kts | 278° |
| 2026-04-29 15:41 | 41.28538 | 46.82683 | 36120 ft | 436 kts | 278° |
| 2026-04-29 15:42 | 41.29696 | 46.74762 | 36122 ft | 436 kts | 277° |
| 2026-04-29 15:42 | 41.30808 | 46.66831 | 36118 ft | 436 kts | 277° |
| 2026-04-29 15:43 | 41.31921 | 46.58897 | 36117 ft | 436 kts | 277° |
| 2026-04-29 15:43 | 41.33027 | 46.50969 | 36119 ft | 436 kts | 277° |
| 2026-04-29 15:44 | 41.34129 | 46.43029 | 36109 ft | 436 kts | 277° |
| 2026-04-29 15:44 | 41.35225 | 46.35094 | 36108 ft | 436 kts | 277° |
| 2026-04-29 15:45 | 41.36316 | 46.27150 | 36102 ft | 436 kts | 277° |
| 2026-04-29 15:45 | 41.37400 | 46.19215 | 36101 ft | 436 kts | 277° |
| 2026-04-29 15:46 | 41.38479 | 46.11276 | 36104 ft | 436 kts | 277° |
| 2026-04-29 15:46 | 41.39552 | 46.03335 | 36097 ft | 436 kts | 277° |
| 2026-04-29 15:47 | 41.40619 | 45.95395 | 36093 ft | 436 kts | 277° |
| 2026-04-29 15:47 | 41.41673 | 45.87510 | 36093 ft | 435 kts | 277° |
| 2026-04-29 15:48 | 41.42730 | 45.79565 | 36093 ft | 435 kts | 277° |
| 2026-04-29 15:48 | 41.43780 | 45.71627 | 36088 ft | 435 kts | 277° |
| 2026-04-29 15:49 | 41.44823 | 45.63694 | 36089 ft | 435 kts | 277° |
| 2026-04-29 15:49 | 41.45860 | 45.55762 | 36088 ft | 434 kts | 277° |
| 2026-04-29 15:50 | 41.46894 | 45.47821 | 36082 ft | 434 kts | 277° |
| 2026-04-29 15:50 | 41.47922 | 45.39882 | 36081 ft | 434 kts | 277° |
| 2026-04-29 15:51 | 41.48252 | 45.31929 | 36082 ft | 430 kts | 266° |
| 2026-04-29 15:51 | 41.48162 | 45.23961 | 36078 ft | 430 kts | 266° |
| 2026-04-29 15:52 | 41.48050 | 45.15996 | 36079 ft | 429 kts | 266° |
| 2026-04-29 15:52 | 41.47932 | 45.08043 | 36078 ft | 429 kts | 266° |
| 2026-04-29 15:53 | 41.47807 | 45.00100 | 36080 ft | 428 kts | 266° |
| 2026-04-29 15:53 | 41.47678 | 44.92163 | 36084 ft | 428 kts | 266° |
| 2026-04-29 15:54 | 41.47543 | 44.84225 | 36082 ft | 428 kts | 266° |
| 2026-04-29 15:54 | 41.47403 | 44.76302 | 36087 ft | 428 kts | 266° |
| 2026-04-29 15:55 | 41.47257 | 44.68369 | 36087 ft | 428 kts | 266° |
| 2026-04-29 15:55 | 41.47106 | 44.60447 | 36093 ft | 427 kts | 266° |
| 2026-04-29 15:56 | 41.46950 | 44.52533 | 36094 ft | 427 kts | 266° |
| 2026-04-29 15:56 | 41.46788 | 44.44615 | 36092 ft | 427 kts | 266° |
| 2026-04-29 15:57 | 41.46621 | 44.36707 | 36094 ft | 427 kts | 265° |
| 2026-04-29 15:57 | 41.46448 | 44.28790 | 36091 ft | 427 kts | 265° |
| 2026-04-29 15:58 | 41.46271 | 44.20882 | 36082 ft | 426 kts | 265° |
| 2026-04-29 15:58 | 41.46088 | 44.12982 | 36086 ft | 427 kts | 265° |
| 2026-04-29 15:59 | 41.45931 | 44.06417 | 36082 ft | 426 kts | 265° |
| 2026-04-29 15:59 | 41.45706 | 43.97230 | 36073 ft | 426 kts | 265° |
| 2026-04-29 16:00 | 41.45508 | 43.89344 | 36082 ft | 426 kts | 265° |
| 2026-04-29 16:00 | 41.45303 | 43.81452 | 36074 ft | 426 kts | 265° |
| 2026-04-29 16:01 | 41.45128 | 43.74845 | 36075 ft | 426 kts | 265° |
| 2026-04-29 16:01 | 41.44913 | 43.66944 | 36079 ft | 427 kts | 265° |
| 2026-04-29 16:02 | 41.44693 | 43.59042 | 36075 ft | 426 kts | 265° |
| 2026-04-29 16:02 | 41.44468 | 43.51145 | 36074 ft | 426 kts | 265° |
| 2026-04-29 16:03 | 41.44237 | 43.43248 | 36069 ft | 427 kts | 265° |
| 2026-04-29 16:03 | 41.44000 | 43.35346 | 36067 ft | 427 kts | 265° |
| 2026-04-29 16:04 | 41.43758 | 43.27429 | 36068 ft | 427 kts | 265° |
| 2026-04-29 16:04 | 41.43513 | 43.19575 | 36059 ft | 427 kts | 265° |
| 2026-04-29 16:05 | 41.43262 | 43.11660 | 36062 ft | 428 kts | 265° |
| 2026-04-29 16:05 | 41.43005 | 43.03745 | 36062 ft | 427 kts | 265° |
| 2026-04-29 16:06 | 41.42542 | 42.95868 | 36070 ft | 426 kts | 259° |
| 2026-04-29 16:06 | 41.41617 | 42.88084 | 36074 ft | 425 kts | 259° |
| 2026-04-29 16:07 | 41.40672 | 42.80306 | 36069 ft | 425 kts | 259° |
| 2026-04-29 16:07 | 41.39720 | 42.72539 | 36075 ft | 425 kts | 259° |
| 2026-04-29 16:08 | 41.38763 | 42.64770 | 36087 ft | 425 kts | 259° |
| 2026-04-29 16:08 | 41.37801 | 42.57006 | 36100 ft | 425 kts | 259° |
| 2026-04-29 16:09 | 41.36833 | 42.49240 | 36107 ft | 425 kts | 259° |
| 2026-04-29 16:09 | 41.35861 | 42.41486 | 36110 ft | 425 kts | 259° |
| 2026-04-29 16:10 | 41.34884 | 42.33737 | 36121 ft | 425 kts | 259° |
| 2026-04-29 16:10 | 41.33902 | 42.25988 | 36132 ft | 425 kts | 259° |
| 2026-04-29 16:11 | 41.32914 | 42.18239 | 36148 ft | 424 kts | 259° |
| 2026-04-29 16:11 | 41.31922 | 42.10501 | 36154 ft | 424 kts | 259° |
| 2026-04-29 16:12 | 41.30925 | 42.02760 | 36146 ft | 424 kts | 259° |
| 2026-04-29 16:12 | 41.29919 | 41.95021 | 36167 ft | 425 kts | 259° |
| 2026-04-29 16:13 | 41.28902 | 41.87290 | 36165 ft | 425 kts | 259° |
| 2026-04-29 16:13 | 41.27880 | 41.79559 | 36180 ft | 425 kts | 259° |
| 2026-04-29 16:14 | 41.26860 | 41.71881 | 36181 ft | 424 kts | 259° |
| 2026-04-29 16:14 | 41.25828 | 41.64157 | 36184 ft | 425 kts | 259° |
| 2026-04-29 16:15 | 41.24791 | 41.56437 | 36175 ft | 425 kts | 259° |
| 2026-04-29 16:15 | 41.23749 | 41.48720 | 36177 ft | 424 kts | 259° |
| 2026-04-29 16:16 | 41.22700 | 41.40994 | 36175 ft | 425 kts | 259° |
| 2026-04-29 16:16 | 41.21647 | 41.33269 | 36166 ft | 425 kts | 259° |
| 2026-04-29 16:17 | 41.20587 | 41.25541 | 36180 ft | 426 kts | 259° |
| 2026-04-29 16:17 | 41.19521 | 41.17813 | 36177 ft | 425 kts | 259° |
| 2026-04-29 16:18 | 41.18451 | 41.10090 | 36184 ft | 426 kts | 259° |
| 2026-04-29 16:18 | 41.17374 | 41.02353 | 36183 ft | 426 kts | 259° |
| 2026-04-29 16:19 | 41.16292 | 40.94630 | 36183 ft | 426 kts | 259° |
| 2026-04-29 16:19 | 41.15205 | 40.86900 | 36184 ft | 426 kts | 259° |
| 2026-04-29 16:20 | 41.14112 | 40.79172 | 36188 ft | 426 kts | 259° |
| 2026-04-29 16:20 | 41.13013 | 40.71440 | 36182 ft | 426 kts | 259° |
| 2026-04-29 16:21 | 41.11916 | 40.63763 | 36183 ft | 427 kts | 259° |
| 2026-04-29 16:21 | 41.10800 | 40.55990 | 36186 ft | 427 kts | 259° |
| 2026-04-29 16:22 | 41.09685 | 40.48263 | 36188 ft | 427 kts | 259° |
| 2026-04-29 16:22 | 41.08564 | 40.40536 | 36187 ft | 427 kts | 259° |
| 2026-04-29 16:23 | 41.07446 | 40.32862 | 36185 ft | 427 kts | 259° |
| 2026-04-29 16:23 | 41.06314 | 40.25131 | 36184 ft | 427 kts | 259° |
| 2026-04-29 16:24 | 41.05177 | 40.17403 | 36190 ft | 427 kts | 259° |
| 2026-04-29 16:24 | 41.04035 | 40.09680 | 36197 ft | 428 kts | 259° |
| 2026-04-29 16:25 | 41.02886 | 40.01948 | 36203 ft | 428 kts | 259° |
| 2026-04-29 16:25 | 41.01733 | 39.94214 | 36208 ft | 428 kts | 259° |
| 2026-04-29 16:26 | 41.00576 | 39.86491 | 36212 ft | 428 kts | 259° |
| 2026-04-29 16:26 | 40.99730 | 39.78715 | 36198 ft | 427 kts | 274° |
| 2026-04-29 16:27 | 41.00404 | 39.70881 | 36210 ft | 429 kts | 276° |
| 2026-04-29 16:27 | 41.01122 | 39.63046 | 36207 ft | 429 kts | 276° |
| 2026-04-29 16:28 | 41.01864 | 39.55213 | 36204 ft | 429 kts | 276° |
| 2026-04-29 16:28 | 41.02604 | 39.47384 | 36199 ft | 428 kts | 276° |
| 2026-04-29 16:29 | 41.03338 | 39.39558 | 36187 ft | 428 kts | 276° |
| 2026-04-29 16:29 | 41.04065 | 39.31744 | 36182 ft | 428 kts | 276° |
| 2026-04-29 16:30 | 41.04788 | 39.23924 | 36180 ft | 427 kts | 276° |
| 2026-04-29 16:30 | 41.05505 | 39.16110 | 36185 ft | 427 kts | 276° |
| 2026-04-29 16:31 | 41.06229 | 39.08306 | 36179 ft | 427 kts | 276° |
| 2026-04-29 16:31 | 41.06949 | 39.00502 | 36180 ft | 426 kts | 276° |
| 2026-04-29 16:32 | 41.07663 | 38.92707 | 36186 ft | 426 kts | 276° |
| 2026-04-29 16:32 | 41.08373 | 38.84900 | 36188 ft | 426 kts | 276° |
| 2026-04-29 16:33 | 41.09426 | 38.73204 | 36186 ft | 426 kts | 276° |
| 2026-04-29 16:33 | 41.10111 | 38.65398 | 36186 ft | 426 kts | 276° |
| 2026-04-29 16:34 | 41.10774 | 38.57646 | 36187 ft | 426 kts | 276° |
| 2026-04-29 16:34 | 41.11435 | 38.49790 | 36186 ft | 426 kts | 276° |
| 2026-04-29 16:35 | 41.12088 | 38.41983 | 36196 ft | 426 kts | 276° |
| 2026-04-29 16:35 | 41.12730 | 38.34230 | 36189 ft | 426 kts | 276° |
| 2026-04-29 16:36 | 41.13373 | 38.26424 | 36188 ft | 426 kts | 276° |
| 2026-04-29 16:36 | 41.14014 | 38.18622 | 36187 ft | 426 kts | 276° |
| 2026-04-29 16:37 | 41.14648 | 38.10822 | 36189 ft | 426 kts | 276° |
| 2026-04-29 16:37 | 41.15177 | 38.04274 | 36184 ft | 425 kts | 276° |
| 2026-04-29 16:38 | 41.15903 | 37.95207 | 36187 ft | 425 kts | 276° |
| 2026-04-29 16:38 | 41.16537 | 37.87406 | 36183 ft | 425 kts | 276° |
| 2026-04-29 16:39 | 41.17203 | 37.79611 | 36190 ft | 425 kts | 276° |
| 2026-04-29 16:39 | 41.17858 | 37.71819 | 36187 ft | 425 kts | 276° |
| 2026-04-29 16:40 | 41.18509 | 37.64024 | 36189 ft | 425 kts | 276° |
| 2026-04-29 16:40 | 41.18991 | 37.56214 | 36188 ft | 425 kts | 275° |
| 2026-04-29 16:41 | 41.19571 | 37.48411 | 36193 ft | 425 kts | 275° |
| 2026-04-29 16:41 | 41.20141 | 37.40603 | 36197 ft | 424 kts | 275° |
| 2026-04-29 16:42 | 41.20703 | 37.32803 | 36198 ft | 424 kts | 275° |
| 2026-04-29 16:42 | 41.21261 | 37.25001 | 36197 ft | 424 kts | 275° |
| 2026-04-29 16:43 | 41.21866 | 37.17206 | 36200 ft | 424 kts | 276° |
| 2026-04-29 16:43 | 41.22471 | 37.09418 | 36200 ft | 424 kts | 276° |
| 2026-04-29 16:44 | 41.23071 | 37.01622 | 36206 ft | 424 kts | 276° |
| 2026-04-29 16:44 | 41.23663 | 36.93837 | 36199 ft | 424 kts | 276° |
| 2026-04-29 16:45 | 41.24252 | 36.86046 | 36195 ft | 424 kts | 276° |
| 2026-04-29 16:45 | 41.24834 | 36.78262 | 36190 ft | 423 kts | 276° |
| 2026-04-29 16:46 | 41.25314 | 36.71785 | 36186 ft | 423 kts | 276° |
| 2026-04-29 16:46 | 41.25886 | 36.64000 | 36181 ft | 423 kts | 275° |
| 2026-04-29 16:47 | 41.26454 | 36.56221 | 36184 ft | 423 kts | 275° |
| 2026-04-29 16:47 | 41.27009 | 36.48433 | 36182 ft | 423 kts | 275° |
| 2026-04-29 16:48 | 41.27560 | 36.40650 | 36188 ft | 423 kts | 275° |
| 2026-04-29 16:48 | 41.28104 | 36.32878 | 36188 ft | 423 kts | 275° |
| 2026-04-29 16:49 | 41.28644 | 36.25091 | 36192 ft | 423 kts | 275° |
| 2026-04-29 16:49 | 41.29179 | 36.17303 | 36188 ft | 423 kts | 275° |
| 2026-04-29 16:50 | 41.29709 | 36.09519 | 36186 ft | 423 kts | 275° |
| 2026-04-29 16:50 | 41.30233 | 36.01738 | 36178 ft | 423 kts | 275° |
| 2026-04-29 16:51 | 41.30752 | 35.93949 | 36178 ft | 423 kts | 275° |
| 2026-04-29 16:51 | 41.31262 | 35.86210 | 36168 ft | 423 kts | 275° |
| 2026-04-29 16:52 | 41.31771 | 35.78422 | 36166 ft | 423 kts | 275° |
| 2026-04-29 16:52 | 41.32275 | 35.70626 | 36155 ft | 423 kts | 275° |
| 2026-04-29 16:53 | 41.32772 | 35.62835 | 36164 ft | 423 kts | 275° |
| 2026-04-29 16:53 | 41.33266 | 35.55037 | 36148 ft | 423 kts | 275° |
| 2026-04-29 16:54 | 41.33753 | 35.47240 | 36158 ft | 423 kts | 275° |
| 2026-04-29 16:54 | 41.34236 | 35.39442 | 36144 ft | 423 kts | 275° |
| 2026-04-29 16:55 | 41.34713 | 35.31646 | 36145 ft | 423 kts | 274° |
| 2026-04-29 16:55 | 41.35185 | 35.23843 | 36140 ft | 423 kts | 274° |
| 2026-04-29 16:56 | 41.35652 | 35.16041 | 36138 ft | 423 kts | 274° |
| 2026-04-29 16:56 | 41.36113 | 35.08236 | 36125 ft | 423 kts | 274° |
| 2026-04-29 16:57 | 41.36569 | 35.00428 | 36125 ft | 423 kts | 274° |
| 2026-04-29 16:57 | 41.37020 | 34.92621 | 36126 ft | 423 kts | 274° |
| 2026-04-29 16:58 | 41.37466 | 34.84811 | 36125 ft | 423 kts | 274° |
| 2026-04-29 16:58 | 41.37906 | 34.76996 | 36119 ft | 423 kts | 274° |
| 2026-04-29 16:59 | 41.38342 | 34.69180 | 36119 ft | 423 kts | 274° |
| 2026-04-29 16:59 | 41.38769 | 34.61417 | 36111 ft | 423 kts | 274° |
| 2026-04-29 17:00 | 41.39195 | 34.53592 | 36114 ft | 423 kts | 274° |
| 2026-04-29 17:00 | 41.39616 | 34.45778 | 36111 ft | 423 kts | 274° |
| 2026-04-29 17:01 | 41.40033 | 34.37957 | 36113 ft | 423 kts | 274° |
| 2026-04-29 17:01 | 41.41225 | 34.30333 | 36120 ft | 423 kts | 288° |
| 2026-04-29 17:02 | 41.43102 | 34.22899 | 36112 ft | 424 kts | 287° |
| 2026-04-29 17:02 | 41.44973 | 34.15465 | 36120 ft | 423 kts | 287° |
| 2026-04-29 17:03 | 41.46890 | 34.08040 | 36118 ft | 423 kts | 288° |
| 2026-04-29 17:03 | 41.48801 | 34.00621 | 36127 ft | 423 kts | 288° |
| 2026-04-29 17:04 | 41.50705 | 33.93200 | 36125 ft | 423 kts | 288° |
| 2026-04-29 17:04 | 41.52606 | 33.85773 | 36135 ft | 423 kts | 287° |
| 2026-04-29 17:05 | 41.54499 | 33.78348 | 36132 ft | 422 kts | 287° |
| 2026-04-29 17:05 | 41.56388 | 33.70922 | 36141 ft | 422 kts | 287° |
| 2026-04-29 17:06 | 41.58267 | 33.63509 | 36138 ft | 422 kts | 287° |
| 2026-04-29 17:06 | 41.60145 | 33.56087 | 36146 ft | 421 kts | 287° |
| 2026-04-29 17:07 | 41.62012 | 33.48674 | 36142 ft | 421 kts | 287° |
| 2026-04-29 17:07 | 41.63659 | 33.42117 | 36150 ft | 421 kts | 287° |
| 2026-04-29 17:08 | 41.65514 | 33.34707 | 36146 ft | 420 kts | 287° |
| 2026-04-29 17:08 | 41.67365 | 33.27294 | 36151 ft | 420 kts | 287° |
| 2026-04-29 17:09 | 41.69206 | 33.19894 | 36146 ft | 419 kts | 287° |
| 2026-04-29 17:09 | 41.71041 | 33.12498 | 36162 ft | 419 kts | 287° |
| 2026-04-29 17:10 | 41.72870 | 33.05105 | 36143 ft | 418 kts | 287° |
| 2026-04-29 17:10 | 41.74694 | 32.97707 | 36152 ft | 418 kts | 287° |
| 2026-04-29 17:11 | 41.76508 | 32.90329 | 36152 ft | 417 kts | 287° |
| 2026-04-29 17:11 | 41.78317 | 32.82947 | 36144 ft | 417 kts | 287° |
| 2026-04-29 17:12 | 41.80121 | 32.75562 | 36152 ft | 416 kts | 287° |
| 2026-04-29 17:12 | 41.81611 | 32.69436 | 36156 ft | 416 kts | 287° |
| 2026-04-29 17:13 | 41.83701 | 32.60820 | 36150 ft | 416 kts | 287° |
| 2026-04-29 17:13 | 41.85482 | 32.53450 | 36153 ft | 415 kts | 287° |
| 2026-04-29 17:14 | 41.87255 | 32.46082 | 36151 ft | 415 kts | 287° |
| 2026-04-29 17:14 | 41.89013 | 32.38714 | 36155 ft | 414 kts | 287° |
| 2026-04-29 17:15 | 41.90108 | 32.31159 | 36150 ft | 413 kts | 278° |
| 2026-04-29 17:15 | 41.90605 | 32.23509 | 36143 ft | 412 kts | 262° |
| 2026-04-29 17:16 | 41.89282 | 32.16002 | 36157 ft | 415 kts | 257° |
| 2026-04-29 17:16 | 41.87817 | 32.08562 | 36154 ft | 415 kts | 257° |
| 2026-04-29 17:17 | 41.86295 | 32.01094 | 36152 ft | 415 kts | 256° |
| 2026-04-29 17:17 | 41.84758 | 31.93624 | 36157 ft | 415 kts | 256° |
| 2026-04-29 17:18 | 41.83215 | 31.86161 | 36154 ft | 415 kts | 256° |
| 2026-04-29 17:18 | 41.81668 | 31.78701 | 36156 ft | 415 kts | 256° |
| 2026-04-29 17:19 | 41.80113 | 31.71245 | 36156 ft | 415 kts | 256° |
| 2026-04-29 17:19 | 41.78552 | 31.63790 | 36156 ft | 416 kts | 256° |
| 2026-04-29 17:20 | 41.76985 | 31.56340 | 36158 ft | 416 kts | 256° |
| 2026-04-29 17:20 | 41.75413 | 31.48884 | 36159 ft | 416 kts | 256° |
| 2026-04-29 17:21 | 41.73836 | 31.41440 | 36160 ft | 416 kts | 256° |
| 2026-04-29 17:21 | 41.72254 | 31.33994 | 36159 ft | 416 kts | 256° |
| 2026-04-29 17:22 | 41.70667 | 31.26551 | 36158 ft | 416 kts | 256° |
| 2026-04-29 17:22 | 41.69076 | 31.19110 | 36160 ft | 416 kts | 256° |
| 2026-04-29 17:23 | 41.67561 | 31.11668 | 35809 ft | 411 kts | 258° |
| 2026-04-29 17:23 | 41.66867 | 31.07944 | 34909 ft | 416 kts | 258° |
| 2026-04-29 17:23 | 41.66153 | 31.04164 | 33989 ft | 421 kts | 257° |
| 2026-04-29 17:24 | 41.65431 | 31.00366 | 33121 ft | 422 kts | 257° |
| 2026-04-29 17:24 | 41.64710 | 30.96575 | 32362 ft | 420 kts | 257° |
| 2026-04-29 17:24 | 41.63988 | 30.92793 | 31577 ft | 420 kts | 257° |
| 2026-04-29 17:24 | 41.63263 | 30.88999 | 30779 ft | 420 kts | 257° |
| 2026-04-29 17:25 | 41.62540 | 30.85231 | 30141 ft | 417 kts | 257° |
| 2026-04-29 17:25 | 41.61832 | 30.81540 | 29452 ft | 414 kts | 257° |
| 2026-04-29 17:25 | 41.61120 | 30.77838 | 28812 ft | 409 kts | 257° |
| 2026-04-29 17:25 | 41.60418 | 30.74198 | 28507 ft | 398 kts | 257° |
| 2026-04-29 17:26 | 41.59738 | 30.70672 | 28287 ft | 387 kts | 257° |
| 2026-04-29 17:26 | 41.59223 | 30.67246 | 27780 ft | 383 kts | 268° |
| 2026-04-29 17:26 | 41.59317 | 30.63709 | 27335 ft | 382 kts | 272° |
| 2026-04-29 17:26 | 41.59420 | 30.60156 | 26907 ft | 381 kts | 272° |
| 2026-04-29 17:27 | 41.59535 | 30.56625 | 26438 ft | 379 kts | 273° |
| 2026-04-29 17:27 | 41.59658 | 30.53118 | 25963 ft | 377 kts | 273° |
| 2026-04-29 17:27 | 41.59784 | 30.49624 | 25493 ft | 375 kts | 273° |
| 2026-04-29 17:27 | 41.59911 | 30.46156 | 25023 ft | 373 kts | 273° |
| 2026-04-29 17:28 | 41.60036 | 30.42703 | 24550 ft | 371 kts | 273° |
| 2026-04-29 17:28 | 41.60160 | 30.39269 | 24092 ft | 369 kts | 273° |
| 2026-04-29 17:28 | 41.60283 | 30.35853 | 23605 ft | 367 kts | 273° |
| 2026-04-29 17:28 | 41.60404 | 30.32456 | 23074 ft | 365 kts | 273° |
| 2026-04-29 17:29 | 41.60522 | 30.29086 | 22597 ft | 362 kts | 273° |
| 2026-04-29 17:29 | 41.60626 | 30.25739 | 22086 ft | 360 kts | 273° |
| 2026-04-29 17:29 | 41.60729 | 30.22420 | 21671 ft | 356 kts | 273° |
| 2026-04-29 17:29 | 41.60796 | 30.20233 | 21397 ft | 356 kts | 273° |
| 2026-04-29 17:30 | 41.60931 | 30.15824 | 20814 ft | 355 kts | 273° |
| 2026-04-29 17:30 | 41.61030 | 30.12534 | 20366 ft | 353 kts | 273° |
| 2026-04-29 17:30 | 41.61127 | 30.09272 | 19926 ft | 351 kts | 272° |
| 2026-04-29 17:30 | 41.61224 | 30.06019 | 19480 ft | 349 kts | 272° |
| 2026-04-29 17:31 | 41.61319 | 30.02785 | 19048 ft | 347 kts | 272° |
| 2026-04-29 17:31 | 41.61412 | 29.99567 | 18614 ft | 346 kts | 272° |
| 2026-04-29 17:31 | 41.61503 | 29.96417 | 18150 ft | 339 kts | 272° |
| 2026-04-29 17:31 | 41.61592 | 29.93323 | 17704 ft | 327 kts | 272° |
| 2026-04-29 17:32 | 41.61677 | 29.90311 | 17287 ft | 314 kts | 272° |
| 2026-04-29 17:32 | 41.61758 | 29.87421 | 16891 ft | 310 kts | 272° |
| 2026-04-29 17:32 | 41.61838 | 29.84548 | 16495 ft | 309 kts | 272° |
| 2026-04-29 17:32 | 41.61899 | 29.81687 | 16132 ft | 306 kts | 269° |
| 2026-04-29 17:33 | 41.61794 | 29.78871 | 15871 ft | 301 kts | 268° |
| 2026-04-29 17:33 | 41.61726 | 29.77035 | 15708 ft | 297 kts | 268° |
| 2026-04-29 17:33 | 41.61600 | 29.73400 | 15383 ft | 295 kts | 268° |
| 2026-04-29 17:33 | 41.61510 | 29.70660 | 15143 ft | 295 kts | 268° |
| 2026-04-29 17:34 | 41.61421 | 29.67927 | 14898 ft | 294 kts | 268° |
| 2026-04-29 17:34 | 41.61332 | 29.65198 | 14651 ft | 293 kts | 268° |
| 2026-04-29 17:34 | 41.61244 | 29.62482 | 14413 ft | 292 kts | 268° |
| 2026-04-29 17:34 | 41.61151 | 29.59778 | 14174 ft | 291 kts | 266° |
| 2026-04-29 17:35 | 41.60262 | 29.56412 | 13790 ft | 291 kts | 236° |
| 2026-04-29 17:35 | 41.58301 | 29.53874 | 13480 ft | 296 kts | 224° |
| 2026-04-29 17:35 | 41.56748 | 29.52055 | 13222 ft | 297 kts | 224° |
| 2026-04-29 17:36 | 41.55192 | 29.50253 | 12979 ft | 296 kts | 224° |
| 2026-04-29 17:36 | 41.53632 | 29.48463 | 12736 ft | 295 kts | 224° |
| 2026-04-29 17:36 | 41.52072 | 29.46682 | 12478 ft | 295 kts | 224° |
| 2026-04-29 17:36 | 41.50512 | 29.44910 | 12173 ft | 295 kts | 224° |
| 2026-04-29 17:37 | 41.48950 | 29.43137 | 11885 ft | 294 kts | 224° |
| 2026-04-29 17:37 | 41.47394 | 29.41374 | 11628 ft | 293 kts | 224° |
| 2026-04-29 17:37 | 41.45839 | 29.39614 | 11379 ft | 293 kts | 224° |
| 2026-04-29 17:37 | 41.44307 | 29.37882 | 11134 ft | 293 kts | 223° |
| 2026-04-29 17:38 | 41.42653 | 29.36233 | 10864 ft | 292 kts | 219° |
| 2026-04-29 17:38 | 41.41065 | 29.34688 | 10626 ft | 280 kts | 220° |
| 2026-04-29 17:38 | 41.39532 | 29.33188 | 10411 ft | 269 kts | 220° |
| 2026-04-29 17:38 | 41.38028 | 29.31709 | 10191 ft | 269 kts | 220° |
| 2026-04-29 17:39 | 41.36487 | 29.30295 | 10008 ft | 270 kts | 209° |
| 2026-04-29 17:39 | 41.34656 | 29.29705 | 9827 ft | 275 kts | 184° |
| 2026-04-29 17:39 | 41.32737 | 29.29677 | 9712 ft | 277 kts | 184° |
| 2026-04-29 17:39 | 41.30814 | 29.29648 | 9586 ft | 277 kts | 183° |
| 2026-04-29 17:40 | 41.28891 | 29.29631 | 9447 ft | 276 kts | 182° |
| 2026-04-29 17:40 | 41.26976 | 29.29621 | 9319 ft | 275 kts | 182° |
| 2026-04-29 17:40 | 41.25067 | 29.29616 | 9186 ft | 274 kts | 182° |
| 2026-04-29 17:40 | 41.23160 | 29.29593 | 9051 ft | 273 kts | 187° |
| 2026-04-29 17:41 | 41.21914 | 29.29279 | 8946 ft | 268 kts | 200° |
| 2026-04-29 17:41 | 41.21790 | 29.29228 | 8938 ft | 268 kts | 200° |
| 2026-04-29 17:41 | 41.20471 | 29.28667 | 8847 ft | 268 kts | 200° |
| 2026-04-29 17:41 | 41.18930 | 29.28029 | 8753 ft | 269 kts | 200° |
| 2026-04-29 17:42 | 41.17148 | 29.27296 | 8626 ft | 268 kts | 200° |
| 2026-04-29 17:42 | 41.15371 | 29.26566 | 8500 ft | 267 kts | 200° |
| 2026-04-29 17:42 | 41.13598 | 29.25837 | 8374 ft | 267 kts | 199° |
| 2026-04-29 17:42 | 41.11826 | 29.25110 | 8246 ft | 266 kts | 199° |
| 2026-04-29 17:43 | 41.10065 | 29.24389 | 8127 ft | 266 kts | 200° |
| 2026-04-29 17:43 | 41.08300 | 29.23665 | 8003 ft | 265 kts | 199° |
| 2026-04-29 17:43 | 41.06537 | 29.22944 | 7873 ft | 265 kts | 199° |
| 2026-04-29 17:43 | 41.04782 | 29.22225 | 7745 ft | 264 kts | 199° |
| 2026-04-29 17:44 | 41.03025 | 29.21507 | 7618 ft | 264 kts | 199° |
| 2026-04-29 17:44 | 41.01277 | 29.20792 | 7495 ft | 263 kts | 199° |
| 2026-04-29 17:44 | 40.99528 | 29.20078 | 7372 ft | 263 kts | 199° |
| 2026-04-29 17:44 | 40.98276 | 29.19566 | 7288 ft | 263 kts | 199° |
| 2026-04-29 17:45 | 40.96525 | 29.18851 | 7160 ft | 262 kts | 199° |
| 2026-04-29 17:45 | 40.94787 | 29.18142 | 7041 ft | 262 kts | 199° |